createdAt,value
2023-07-06T00:00:24.857Z,0.00
2023-07-06T00:01:24.948Z,0.00
2023-07-06T00:02:24.890Z,0.00
2023-07-06T00:03:25.364Z,0.00
2023-07-06T00:04:24.842Z,0.00
2023-07-06T00:05:24.810Z,0.00
2023-07-06T00:06:24.802Z,0.00
2023-07-06T00:07:24.833Z,0.00
2023-07-06T00:08:24.774Z,0.00
2023-07-06T00:09:25.268Z,0.00
2023-07-06T00:10:24.768Z,0.00
2023-07-06T00:11:24.763Z,0.00
2023-07-06T00:12:24.772Z,0.00
2023-07-06T00:13:24.778Z,0.00
2023-07-06T00:14:24.704Z,0.00
2023-07-06T00:15:24.731Z,0.00
2023-07-06T00:16:24.759Z,0.00
2023-07-06T00:17:24.734Z,0.00
2023-07-06T00:18:24.669Z,0.00
2023-07-06T00:19:24.668Z,0.00
2023-07-06T00:20:24.653Z,0.00
2023-07-06T00:21:24.634Z,0.00
2023-07-06T00:22:24.690Z,0.00
2023-07-06T00:23:24.637Z,0.00
2023-07-06T00:24:24.615Z,0.00
2023-07-06T00:25:24.584Z,0.00
2023-07-06T00:26:24.586Z,0.00
2023-07-06T00:27:24.582Z,0.00
2023-07-06T00:28:24.559Z,0.00
2023-07-06T00:29:24.548Z,0.00
2023-07-06T00:30:24.548Z,0.00
2023-07-06T00:31:24.586Z,0.00
2023-07-06T00:32:24.545Z,0.00
2023-07-06T00:33:24.507Z,0.00
2023-07-06T00:34:24.537Z,0.00
2023-07-06T00:35:24.482Z,0.00
2023-07-06T00:36:25.059Z,0.00
2023-07-06T00:37:24.468Z,0.00
2023-07-06T00:38:24.474Z,0.00
2023-07-06T00:39:24.434Z,0.00
2023-07-06T00:40:24.440Z,0.00
2023-07-06T00:41:24.456Z,0.00
2023-07-06T00:42:24.456Z,0.00
2023-07-06T00:43:24.403Z,0.00
2023-07-06T00:44:24.390Z,0.00
2023-07-06T00:45:24.384Z,0.00
2023-07-06T00:46:25.029Z,0.00
2023-07-06T00:47:24.391Z,0.00
2023-07-06T00:48:24.357Z,0.00
2023-07-06T00:49:24.358Z,0.00
2023-07-06T00:50:24.346Z,0.00
2023-07-06T00:51:24.853Z,0.00
2023-07-06T00:52:24.306Z,0.00
2023-07-06T00:53:24.293Z,0.00
2023-07-06T00:54:24.300Z,0.00
2023-07-06T00:55:24.268Z,0.00
2023-07-06T00:56:24.525Z,0.00
2023-07-06T00:57:24.261Z,0.00
2023-07-06T00:58:24.266Z,0.00
2023-07-06T00:59:24.265Z,0.00
2023-07-06T01:00:24.236Z,0.00
2023-07-06T01:01:24.337Z,0.00
2023-07-06T01:02:24.252Z,0.00
2023-07-06T01:03:24.259Z,0.00
2023-07-06T01:04:24.181Z,0.00
2023-07-06T01:05:24.207Z,0.00
2023-07-06T01:06:24.177Z,0.00
2023-07-06T01:07:24.188Z,0.00
2023-07-06T01:08:24.155Z,0.00
2023-07-06T01:09:24.148Z,0.00
2023-07-06T01:10:24.169Z,0.00
2023-07-06T01:11:24.139Z,0.00
2023-07-06T01:12:24.134Z,0.00
2023-07-06T01:13:24.099Z,0.00
2023-07-06T01:14:24.099Z,0.00
2023-07-06T01:15:24.068Z,0.00
2023-07-06T01:16:24.097Z,0.00
2023-07-06T01:17:24.098Z,0.00
2023-07-06T01:18:24.630Z,0.00
2023-07-06T01:19:24.043Z,0.00
2023-07-06T01:20:24.027Z,0.00
2023-07-06T01:21:23.987Z,0.00
2023-07-06T01:22:24.081Z,0.00
2023-07-06T01:23:23.974Z,0.00
2023-07-06T01:24:23.971Z,0.00
2023-07-06T01:25:25.430Z,0.00
2023-07-06T01:26:23.949Z,0.00
2023-07-06T01:27:23.919Z,0.00
2023-07-06T01:28:23.927Z,0.00
2023-07-06T01:29:23.959Z,0.00
2023-07-06T01:30:23.954Z,0.00
2023-07-06T01:31:23.932Z,0.00
2023-07-06T01:32:23.915Z,0.00
2023-07-06T01:33:23.863Z,0.00
2023-07-06T01:34:23.867Z,0.00
2023-07-06T01:35:23.863Z,0.00
2023-07-06T01:36:23.841Z,0.00
2023-07-06T01:37:23.865Z,0.00
2023-07-06T01:38:23.862Z,0.00
2023-07-06T01:39:23.827Z,0.00
2023-07-06T01:40:23.840Z,0.00
2023-07-06T01:41:24.296Z,0.00
2023-07-06T01:42:23.776Z,0.00
2023-07-06T01:43:23.756Z,0.00
2023-07-06T01:44:23.785Z,0.00
2023-07-06T01:45:23.776Z,0.00
2023-07-06T01:46:23.805Z,0.00
2023-07-06T01:47:23.740Z,0.00
2023-07-06T01:48:23.714Z,0.00
2023-07-06T01:49:23.703Z,0.00
2023-07-06T01:50:23.737Z,0.00
2023-07-06T01:51:23.692Z,0.00
2023-07-06T01:52:23.677Z,0.00
2023-07-06T01:53:23.679Z,0.00
2023-07-06T01:54:23.655Z,0.00
2023-07-06T01:55:23.660Z,0.00
2023-07-06T01:56:24.631Z,0.00
2023-07-06T01:57:23.625Z,0.00
2023-07-06T01:58:23.611Z,0.00
2023-07-06T01:59:23.600Z,0.00
2023-07-06T02:00:23.588Z,0.00
2023-07-06T02:01:23.755Z,0.00
2023-07-06T02:02:23.639Z,0.00
2023-07-06T02:03:25.374Z,0.00
2023-07-06T02:04:23.566Z,0.00
2023-07-06T02:05:24.045Z,0.00
2023-07-06T02:06:23.556Z,0.00
2023-07-06T02:07:23.676Z,1.00
2023-07-06T02:08:24.059Z,0.00
2023-07-06T02:09:23.483Z,0.00
2023-07-06T02:10:23.833Z,0.00
2023-07-06T02:11:23.460Z,1.00
2023-07-06T02:12:23.493Z,1.00
2023-07-06T02:13:23.421Z,1.00
2023-07-06T02:14:23.380Z,1.00
2023-07-06T02:15:23.906Z,1.00
2023-07-06T02:16:23.396Z,2.00
2023-07-06T02:17:23.944Z,0.00
2023-07-06T02:18:23.589Z,2.00
2023-07-06T02:19:23.329Z,2.00
2023-07-06T02:20:23.333Z,1.00
2023-07-06T02:21:23.379Z,1.00
2023-07-06T02:22:23.292Z,1.00
2023-07-06T02:23:23.290Z,2.00
2023-07-06T02:24:23.339Z,2.00
2023-07-06T02:25:23.283Z,7.00
2023-07-06T02:26:23.256Z,5.00
2023-07-06T02:27:23.246Z,4.00
2023-07-06T02:28:23.231Z,6.00
2023-07-06T02:29:23.230Z,8.00
2023-07-06T02:30:24.247Z,7.00
2023-07-06T02:31:24.477Z,3.00
2023-07-06T02:32:23.918Z,11.00
2023-07-06T02:33:23.693Z,9.00
2023-07-06T02:34:23.175Z,10.00
2023-07-06T02:35:23.144Z,9.00
2023-07-06T02:36:23.676Z,16.00
2023-07-06T02:37:23.180Z,11.00
2023-07-06T02:38:23.135Z,12.00
2023-07-06T02:39:23.119Z,18.00
2023-07-06T02:40:23.101Z,18.00
2023-07-06T02:41:23.303Z,20.00
2023-07-06T02:42:23.076Z,22.00
2023-07-06T02:43:23.907Z,28.00
2023-07-06T02:44:23.108Z,27.00
2023-07-06T02:45:23.039Z,26.00
2023-07-06T02:46:23.567Z,27.00
2023-07-06T02:47:23.380Z,30.00
2023-07-06T02:48:23.070Z,33.00
2023-07-06T02:49:22.995Z,36.00
2023-07-06T02:50:23.498Z,41.00
2023-07-06T02:51:22.974Z,44.00
2023-07-06T02:52:23.007Z,47.00
2023-07-06T02:53:22.961Z,58.00
2023-07-06T02:54:23.074Z,63.00
2023-07-06T02:55:24.408Z,68.00
2023-07-06T02:56:22.962Z,72.00
2023-07-06T02:57:22.929Z,76.00
2023-07-06T02:58:22.945Z,83.00
2023-07-06T02:59:22.899Z,86.00
2023-07-06T03:00:22.904Z,93.00
2023-07-06T03:01:23.950Z,100.00
2023-07-06T03:02:23.483Z,107.00
2023-07-06T03:03:22.874Z,114.00
2023-07-06T03:04:22.848Z,122.00
2023-07-06T03:05:22.846Z,131.00
2023-07-06T03:06:22.823Z,132.00
2023-07-06T03:07:24.388Z,142.00
2023-07-06T03:08:22.867Z,152.00
2023-07-06T03:09:22.796Z,156.00
2023-07-06T03:10:22.777Z,163.00
2023-07-06T03:11:22.777Z,173.00
2023-07-06T03:12:22.769Z,181.00
2023-07-06T03:13:22.803Z,192.00
2023-07-06T03:14:22.774Z,196.00
2023-07-06T03:15:23.648Z,206.00
2023-07-06T03:16:23.435Z,218.00
2023-07-06T03:17:22.775Z,225.00
2023-07-06T03:18:22.707Z,231.00
2023-07-06T03:19:22.891Z,240.00
2023-07-06T03:20:22.674Z,248.00
2023-07-06T03:21:22.682Z,262.00
2023-07-06T03:22:22.685Z,273.00
2023-07-06T03:23:22.650Z,276.00
2023-07-06T03:24:22.671Z,285.00
2023-07-06T03:25:22.629Z,313.00
2023-07-06T03:26:23.470Z,336.00
2023-07-06T03:27:22.646Z,332.00
2023-07-06T03:28:22.607Z,341.00
2023-07-06T03:29:22.618Z,355.00
2023-07-06T03:30:22.579Z,365.00
2023-07-06T03:31:22.611Z,377.00
2023-07-06T03:32:22.586Z,386.00
2023-07-06T03:33:22.548Z,393.00
2023-07-06T03:34:22.559Z,410.00
2023-07-06T03:35:24.389Z,422.00
2023-07-06T03:36:24.882Z,437.00
2023-07-06T03:37:23.492Z,447.00
2023-07-06T03:38:22.528Z,459.00
2023-07-06T03:39:23.272Z,471.00
2023-07-06T03:40:22.502Z,482.00
2023-07-06T03:41:22.456Z,492.00
2023-07-06T03:42:22.453Z,504.00
2023-07-06T03:43:22.451Z,512.00
2023-07-06T03:44:22.455Z,526.00
2023-07-06T03:45:22.407Z,534.00
2023-07-06T03:46:22.851Z,545.00
2023-07-06T03:47:22.680Z,563.00
2023-07-06T03:48:23.050Z,576.00
2023-07-06T03:49:22.362Z,594.00
2023-07-06T03:50:22.368Z,602.00
2023-07-06T03:51:22.361Z,617.00
2023-07-06T03:52:22.339Z,623.00
2023-07-06T03:53:22.363Z,635.00
2023-07-06T03:54:22.325Z,652.00
2023-07-06T03:55:22.445Z,661.00
2023-07-06T03:56:22.293Z,669.00
2023-07-06T03:57:22.288Z,678.00
2023-07-06T03:58:22.299Z,688.00
2023-07-06T03:59:22.294Z,698.00
2023-07-06T04:00:22.293Z,716.00
2023-07-06T04:01:22.299Z,725.00
2023-07-06T04:02:22.361Z,735.00
2023-07-06T04:03:22.291Z,742.00
2023-07-06T04:04:22.381Z,753.00
2023-07-06T04:05:22.206Z,768.00
2023-07-06T04:06:22.982Z,779.00
2023-07-06T04:07:22.204Z,790.00
2023-07-06T04:08:22.179Z,800.00
2023-07-06T04:09:23.011Z,809.00
2023-07-06T04:10:22.147Z,818.00
2023-07-06T04:11:22.312Z,825.00
2023-07-06T04:12:22.164Z,836.00
2023-07-06T04:13:22.185Z,846.00
2023-07-06T04:14:22.116Z,856.00
2023-07-06T04:15:22.110Z,867.00
2023-07-06T04:16:22.160Z,875.00
2023-07-06T04:17:22.155Z,884.00
2023-07-06T04:18:22.065Z,893.00
2023-07-06T04:19:22.958Z,897.00
2023-07-06T04:20:22.060Z,910.00
2023-07-06T04:21:22.060Z,926.00
2023-07-06T04:22:22.033Z,939.00
2023-07-06T04:23:22.949Z,953.00
2023-07-06T04:24:22.021Z,963.00
2023-07-06T04:25:21.997Z,976.00
2023-07-06T04:26:22.014Z,989.00
2023-07-06T04:27:21.971Z,1000.00
2023-07-06T04:28:21.999Z,1009.00
2023-07-06T04:29:21.929Z,1022.00
2023-07-06T04:30:21.942Z,1032.00
2023-07-06T04:31:21.970Z,1043.00
2023-07-06T04:32:21.924Z,1062.00
2023-07-06T04:33:21.908Z,1070.00
2023-07-06T04:34:21.905Z,1084.00
2023-07-06T04:35:21.911Z,1096.00
2023-07-06T04:36:22.389Z,1106.00
2023-07-06T04:37:22.510Z,1120.00
2023-07-06T04:38:21.879Z,1132.00
2023-07-06T04:39:21.848Z,1147.00
2023-07-06T04:40:21.829Z,1153.00
2023-07-06T04:41:21.825Z,1173.00
2023-07-06T04:42:21.804Z,1178.00
2023-07-06T04:43:21.833Z,1191.00
2023-07-06T04:44:21.789Z,1202.00
2023-07-06T04:45:21.828Z,1220.00
2023-07-06T04:46:21.790Z,1233.00
2023-07-06T04:47:21.763Z,1246.00
2023-07-06T04:48:22.873Z,1259.00
2023-07-06T04:49:21.735Z,1270.00
2023-07-06T04:50:21.727Z,1283.00
2023-07-06T04:51:21.742Z,1297.00
2023-07-06T04:52:21.906Z,1304.00
2023-07-06T04:53:21.732Z,1317.00
2023-07-06T04:54:21.680Z,1319.00
2023-07-06T04:55:21.676Z,1328.00
2023-07-06T04:56:21.659Z,1339.00
2023-07-06T04:57:21.681Z,1335.00
2023-07-06T04:58:21.698Z,1347.00
2023-07-06T04:59:21.670Z,1354.00
2023-07-06T05:00:21.622Z,1381.00
2023-07-06T05:01:21.713Z,1378.00
2023-07-06T05:02:21.637Z,1386.00
2023-07-06T05:03:21.729Z,1423.00
2023-07-06T05:04:21.774Z,1421.00
2023-07-06T05:05:21.571Z,1424.00
2023-07-06T05:06:22.447Z,1423.00
2023-07-06T05:07:21.554Z,1436.00
2023-07-06T05:08:21.545Z,1444.00
2023-07-06T05:09:23.916Z,1460.00
2023-07-06T05:10:21.502Z,1465.00
2023-07-06T05:11:21.549Z,1484.00
2023-07-06T05:12:21.478Z,1492.00
2023-07-06T05:13:21.574Z,1519.00
2023-07-06T05:14:21.461Z,1522.00
2023-07-06T05:15:21.482Z,1538.00
2023-07-06T05:16:21.506Z,1527.00
2023-07-06T05:17:21.558Z,1552.00
2023-07-06T05:18:21.808Z,1555.00
2023-07-06T05:19:21.477Z,1637.00
2023-07-06T05:20:21.403Z,1679.00
2023-07-06T05:21:21.395Z,1611.00
2023-07-06T05:22:21.405Z,1730.00
2023-07-06T05:23:21.423Z,1629.00
2023-07-06T05:24:21.368Z,1694.00
2023-07-06T05:25:21.352Z,1864.00
2023-07-06T05:26:21.368Z,2136.00
2023-07-06T05:27:21.329Z,1618.00
2023-07-06T05:28:21.314Z,1727.00
2023-07-06T05:29:21.312Z,1796.00
2023-07-06T05:30:22.396Z,1908.00
2023-07-06T05:31:21.416Z,1915.00
2023-07-06T05:32:21.379Z,1856.00
2023-07-06T05:33:21.286Z,1855.00
2023-07-06T05:34:21.257Z,1802.00
2023-07-06T05:35:21.245Z,1989.00
2023-07-06T05:36:21.252Z,2069.00
2023-07-06T05:37:34.717Z,1970.00
2023-07-06T05:38:21.230Z,2099.00
2023-07-06T05:39:21.205Z,2276.00
2023-07-06T05:40:21.209Z,1981.00
2023-07-06T05:41:21.202Z,2888.00
2023-07-06T05:42:21.181Z,1177.00
2023-07-06T05:43:21.214Z,1916.00
2023-07-06T05:44:21.186Z,2262.00
2023-07-06T05:45:21.184Z,2212.00
2023-07-06T05:46:21.156Z,2313.00
2023-07-06T05:47:21.199Z,2253.00
2023-07-06T05:48:21.151Z,2390.00
2023-07-06T05:49:21.105Z,2367.00
2023-07-06T05:50:21.111Z,2360.00
2023-07-06T05:51:21.087Z,2380.00
2023-07-06T05:52:21.056Z,2592.00
2023-07-06T05:53:21.045Z,2573.00
2023-07-06T05:54:21.036Z,2447.00
2023-07-06T05:55:21.056Z,2575.00
2023-07-06T05:56:21.010Z,2623.00
2023-07-06T05:57:21.006Z,2577.00
2023-07-06T05:58:20.988Z,2576.00
2023-07-06T05:59:21.002Z,2701.00
2023-07-06T06:00:21.043Z,2479.00
2023-07-06T06:01:21.017Z,2656.00
2023-07-06T06:02:20.986Z,2717.00
2023-07-06T06:03:20.973Z,2754.00
2023-07-06T06:04:21.119Z,2737.00
2023-07-06T06:05:20.968Z,2606.00
2023-07-06T06:06:20.899Z,2672.00
2023-07-06T06:07:20.969Z,2630.00
2023-07-06T06:08:20.922Z,2739.00
2023-07-06T06:09:20.885Z,2686.00
2023-07-06T06:10:20.932Z,2646.00
2023-07-06T06:11:20.869Z,2753.00
2023-07-06T06:12:20.848Z,2730.00
2023-07-06T06:13:21.839Z,2720.00
2023-07-06T06:14:20.815Z,2741.00
2023-07-06T06:15:20.861Z,2642.00
2023-07-06T06:16:20.803Z,2632.00
2023-07-06T06:17:20.914Z,2637.00
2023-07-06T06:18:20.808Z,2678.00
2023-07-06T06:19:20.920Z,2645.00
2023-07-06T06:20:20.806Z,2633.00
2023-07-06T06:21:20.775Z,2653.00
2023-07-06T06:22:20.733Z,2620.00
2023-07-06T06:23:20.753Z,2706.00
2023-07-06T06:24:20.808Z,2711.00
2023-07-06T06:25:20.745Z,2687.00
2023-07-06T06:26:20.722Z,2669.00
2023-07-06T06:27:20.730Z,2700.00
2023-07-06T06:28:20.679Z,2773.00
2023-07-06T06:29:20.718Z,2887.00
2023-07-06T06:30:20.641Z,2879.00
2023-07-06T06:31:20.669Z,2983.00
2023-07-06T06:32:20.717Z,3025.00
2023-07-06T06:33:20.667Z,2867.00
2023-07-06T06:34:20.604Z,2971.00
2023-07-06T06:35:20.603Z,3145.00
2023-07-06T06:36:20.630Z,3084.00
2023-07-06T06:37:20.624Z,3039.00
2023-07-06T06:38:20.569Z,3145.00
2023-07-06T06:39:20.555Z,3033.00
2023-07-06T06:40:20.568Z,2384.00
2023-07-06T06:41:20.540Z,2135.00
2023-07-06T06:42:20.544Z,4142.00
2023-07-06T06:43:20.557Z,8105.00
2023-07-06T06:44:20.516Z,9609.00
2023-07-06T06:45:20.502Z,9430.00
2023-07-06T06:46:20.579Z,9473.00
2023-07-06T06:47:20.554Z,10025.00
2023-07-06T06:48:20.459Z,10625.00
2023-07-06T06:49:20.454Z,11052.00
2023-07-06T06:50:20.446Z,10625.00
2023-07-06T06:51:20.465Z,12719.00
2023-07-06T06:52:20.420Z,13798.00
2023-07-06T06:53:20.471Z,12260.00
2023-07-06T06:54:20.400Z,9891.00
2023-07-06T06:55:22.628Z,9039.00
2023-07-06T06:56:20.409Z,9697.00
2023-07-06T06:57:20.379Z,11170.00
2023-07-06T06:58:20.379Z,12253.00
2023-07-06T06:59:20.459Z,10414.00
2023-07-06T07:00:20.343Z,9875.00
2023-07-06T07:01:20.407Z,10671.00
2023-07-06T07:02:20.369Z,11234.00
2023-07-06T07:03:20.363Z,11499.00
2023-07-06T07:04:20.401Z,12003.00
2023-07-06T07:05:20.299Z,9500.00
2023-07-06T07:06:20.304Z,11241.00
2023-07-06T07:07:20.277Z,10201.00
2023-07-06T07:08:20.245Z,10246.00
2023-07-06T07:09:20.269Z,10615.00
2023-07-06T07:10:20.236Z,11146.00
2023-07-06T07:11:23.651Z,12478.00
2023-07-06T07:12:20.221Z,11971.00
2023-07-06T07:13:20.226Z,11487.00
2023-07-06T07:14:20.218Z,12132.00
2023-07-06T07:15:21.003Z,13062.00
2023-07-06T07:16:20.198Z,14472.00
2023-07-06T07:17:20.175Z,15057.00
2023-07-06T07:18:20.140Z,15257.00
2023-07-06T07:19:20.136Z,14372.00
2023-07-06T07:20:20.135Z,14095.00
2023-07-06T07:21:20.115Z,17808.00
2023-07-06T07:22:20.099Z,21482.00
2023-07-06T07:23:20.136Z,16692.00
2023-07-06T07:24:20.143Z,15687.00
2023-07-06T07:25:20.140Z,29148.00
2023-07-06T07:26:20.058Z,14075.00
2023-07-06T07:27:20.070Z,14554.00
2023-07-06T07:28:20.059Z,14754.00
2023-07-06T07:29:20.072Z,17788.00
2023-07-06T07:30:20.079Z,16925.00
2023-07-06T07:31:20.092Z,13104.00
2023-07-06T07:32:20.045Z,12686.00
2023-07-06T07:33:19.992Z,13316.00
2023-07-06T07:34:20.259Z,13369.00
2023-07-06T07:35:19.986Z,12393.00
2023-07-06T07:36:20.001Z,13310.00
2023-07-06T07:37:19.952Z,13807.00
2023-07-06T07:38:19.932Z,13035.00
2023-07-06T07:39:19.935Z,12879.00
2023-07-06T07:40:19.942Z,14783.00
2023-07-06T07:41:20.708Z,13155.00
2023-07-06T07:42:19.882Z,13465.00
2023-07-06T07:43:19.894Z,13576.00
2023-07-06T07:44:19.860Z,14562.00
2023-07-06T07:45:20.030Z,14069.00
2023-07-06T07:46:19.906Z,14958.00
2023-07-06T07:47:20.632Z,14921.00
2023-07-06T07:48:22.671Z,14565.00
2023-07-06T07:49:19.899Z,15432.00
2023-07-06T07:50:19.819Z,17296.00
2023-07-06T07:51:19.845Z,17667.00
2023-07-06T07:52:19.938Z,16554.00
2023-07-06T07:53:19.829Z,16939.00
2023-07-06T07:54:19.893Z,18669.00
2023-07-06T07:55:19.792Z,20741.00
2023-07-06T07:56:20.565Z,20957.00
2023-07-06T07:57:19.765Z,20804.00
2023-07-06T07:58:19.769Z,18826.00
2023-07-06T07:59:19.781Z,14698.00
2023-07-06T08:00:19.795Z,11293.00
2023-07-06T08:01:19.794Z,8781.00
2023-07-06T08:02:19.762Z,81062.00
2023-07-06T08:03:19.723Z,76682.00
2023-07-06T08:04:19.801Z,28896.00
2023-07-06T08:05:19.653Z,17747.00
2023-07-06T08:06:19.710Z,15716.00
2023-07-06T08:07:19.733Z,15781.00
2023-07-06T08:08:19.646Z,14287.00
2023-07-06T08:09:19.653Z,15405.00
2023-07-06T08:10:19.635Z,12368.00
2023-07-06T08:11:19.694Z,14241.00
2023-07-06T08:12:19.631Z,18835.00
2023-07-06T08:13:19.653Z,6713.00
2023-07-06T08:14:19.690Z,10681.00
2023-07-06T08:15:19.624Z,11647.00
2023-07-06T08:16:19.602Z,12624.00
2023-07-06T08:17:19.638Z,12403.00
2023-07-06T08:18:19.573Z,13906.00
2023-07-06T08:19:42.515Z,10222.00
2023-07-06T08:20:59.181Z,12878.00
2023-07-06T08:22:00.684Z,13119.00
2023-07-06T08:22:19.551Z,13007.00
2023-07-06T08:23:19.491Z,15732.00
2023-07-06T08:24:19.489Z,8296.00
2023-07-06T08:25:19.465Z,14104.00
2023-07-06T08:26:19.465Z,18574.00
2023-07-06T08:27:21.919Z,10758.00
2023-07-06T08:28:19.426Z,7151.00
2023-07-06T08:29:19.510Z,6035.00
2023-07-06T08:30:19.463Z,4909.00
2023-07-06T08:31:21.166Z,7044.00
2023-07-06T08:32:19.404Z,2978.00
2023-07-06T08:33:19.375Z,10571.00
2023-07-06T08:34:19.385Z,10797.00
2023-07-06T08:35:19.385Z,11537.00
2023-07-06T08:36:19.352Z,11036.00
2023-07-06T08:37:19.351Z,13553.00
2023-07-06T08:38:19.336Z,5048.00
2023-07-06T08:39:19.334Z,2947.00
2023-07-06T08:40:19.485Z,4568.00
2023-07-06T08:41:19.309Z,4084.00
2023-07-06T08:42:19.305Z,16346.00
2023-07-06T08:43:19.286Z,13736.00
2023-07-06T08:44:20.897Z,22017.00
2023-07-06T08:45:19.275Z,27933.00
2023-07-06T08:46:19.275Z,3281.00
2023-07-06T08:47:19.268Z,10345.00
2023-07-06T08:48:19.253Z,34010.00
2023-07-06T08:49:19.223Z,9809.00
2023-07-06T08:50:19.228Z,8093.00
2023-07-06T08:51:19.202Z,61749.00
2023-07-06T08:52:19.200Z,5423.00
2023-07-06T08:53:19.204Z,79642.00
2023-07-06T08:54:19.190Z,80994.00
2023-07-06T08:55:19.192Z,80601.00
2023-07-06T08:56:19.173Z,80712.00
2023-07-06T08:57:19.161Z,79642.00
2023-07-06T08:58:19.123Z,78838.00
2023-07-06T08:59:19.134Z,78793.00
2023-07-06T09:00:19.114Z,80837.00
2023-07-06T09:01:20.635Z,66618.00
2023-07-06T09:02:19.224Z,6864.00
2023-07-06T09:03:19.159Z,57845.00
2023-07-06T09:04:19.072Z,1957.00
2023-07-06T09:05:19.048Z,6788.00
2023-07-06T09:06:19.055Z,80717.00
2023-07-06T09:07:19.285Z,81309.00
2023-07-06T09:08:19.043Z,70668.00
2023-07-06T09:09:19.045Z,25694.00
2023-07-06T09:10:26.567Z,4248.00
2023-07-06T09:11:22.187Z,21177.00
2023-07-06T09:12:19.022Z,4932.00
2023-07-06T09:13:18.989Z,80618.00
2023-07-06T09:14:18.995Z,81626.00
2023-07-06T09:15:18.969Z,82216.00
2023-07-06T09:16:18.959Z,80293.00
2023-07-06T09:17:18.978Z,57862.00
2023-07-06T09:18:18.933Z,2513.00
2023-07-06T09:19:19.010Z,7036.00
2023-07-06T09:20:19.501Z,2602.00
2023-07-06T09:21:18.891Z,14952.00
2023-07-06T09:22:18.913Z,4327.00
2023-07-06T09:23:18.871Z,4266.00
2023-07-06T09:24:18.888Z,4834.00
2023-07-06T09:25:18.861Z,3233.00
2023-07-06T09:26:32.732Z,1916.00
2023-07-06T09:27:18.906Z,79198.00
2023-07-06T09:28:18.854Z,80370.00
2023-07-06T09:29:18.804Z,79727.00
2023-07-06T09:30:18.857Z,79296.00
2023-07-06T09:31:18.804Z,78390.00
2023-07-06T09:32:18.781Z,76281.00
2023-07-06T09:33:18.807Z,76657.00
2023-07-06T09:34:18.811Z,78319.00
2023-07-06T09:35:18.745Z,74753.00
2023-07-06T09:36:18.735Z,26411.00
2023-07-06T09:37:18.752Z,10241.00
2023-07-06T09:38:18.766Z,3192.00
2023-07-06T09:39:18.739Z,2473.00
2023-07-06T09:40:18.739Z,1972.00
2023-07-06T09:41:18.709Z,3354.00
2023-07-06T09:42:18.728Z,1636.00
2023-07-06T09:43:18.667Z,3724.00
2023-07-06T09:44:18.706Z,9362.00
2023-07-06T09:45:18.676Z,7227.00
2023-07-06T09:46:18.691Z,9057.00
2023-07-06T09:47:18.677Z,10464.00
2023-07-06T09:48:18.628Z,5291.00
2023-07-06T09:49:18.620Z,2770.00
2023-07-06T09:50:18.638Z,7811.00
2023-07-06T09:51:18.619Z,6946.00
2023-07-06T09:52:18.589Z,9857.00
2023-07-06T09:53:18.592Z,4930.00
2023-07-06T09:54:18.641Z,4151.00
2023-07-06T09:55:18.601Z,2791.00
2023-07-06T09:56:18.616Z,5493.00
2023-07-06T09:57:18.525Z,6218.00
2023-07-06T09:58:18.525Z,8975.00
2023-07-06T09:59:18.493Z,7235.00
2023-07-06T10:00:18.505Z,6034.00
2023-07-06T10:01:18.540Z,5619.00
2023-07-06T10:02:18.533Z,4695.00
2023-07-06T10:03:18.560Z,3876.00
2023-07-06T10:04:18.463Z,3024.00
2023-07-06T10:05:18.474Z,4237.00
2023-07-06T10:06:18.479Z,5265.00
2023-07-06T10:07:18.414Z,5423.00
2023-07-06T10:08:18.465Z,4668.00
2023-07-06T10:09:18.528Z,4921.00
2023-07-06T10:10:19.031Z,3989.00
2023-07-06T10:11:18.378Z,5099.00
2023-07-06T10:12:18.399Z,5191.00
2023-07-06T10:13:18.404Z,4780.00
2023-07-06T10:14:18.362Z,4286.00
2023-07-06T10:15:18.348Z,5241.00
2023-07-06T10:16:18.326Z,4918.00
2023-07-06T10:17:18.362Z,6342.00
2023-07-06T10:18:18.340Z,5830.00
2023-07-06T10:19:18.314Z,6714.00
2023-07-06T10:20:18.309Z,7191.00
2023-07-06T10:21:18.353Z,2098.00
2023-07-06T10:22:18.311Z,9361.00
2023-07-06T10:23:18.249Z,9600.00
2023-07-06T10:24:18.243Z,2942.00
2023-07-06T10:25:18.232Z,8729.00
2023-07-06T10:26:18.242Z,7888.00
2023-07-06T10:27:18.287Z,6979.00
2023-07-06T10:28:18.359Z,6458.00
2023-07-06T10:29:18.298Z,5951.00
2023-07-06T10:30:18.207Z,5783.00
2023-07-06T10:31:18.243Z,5582.00
2023-07-06T10:32:18.190Z,5225.00
2023-07-06T10:33:18.231Z,5214.00
2023-07-06T10:34:18.155Z,5151.00
2023-07-06T10:35:18.122Z,4177.00
2023-07-06T10:36:18.125Z,5219.00
2023-07-06T10:37:19.072Z,10148.00
2023-07-06T10:38:18.608Z,7001.00
2023-07-06T10:39:18.120Z,7219.00
2023-07-06T10:40:18.141Z,8555.00
2023-07-06T10:41:18.106Z,8395.00
2023-07-06T10:42:18.078Z,8297.00
2023-07-06T10:43:18.052Z,5096.00
2023-07-06T10:44:18.060Z,9292.00
2023-07-06T10:45:18.016Z,9740.00
2023-07-06T10:47:18.001Z,7087.00
2023-07-06T10:48:18.073Z,10362.00
2023-07-06T10:49:17.985Z,9967.00
2023-07-06T10:50:18.030Z,7435.00
2023-07-06T10:51:18.031Z,6717.00
2023-07-06T10:52:18.010Z,6696.00
2023-07-06T10:53:18.033Z,7556.00
2023-07-06T10:54:18.175Z,6408.00
2023-07-06T10:55:17.927Z,4989.00
2023-07-06T10:56:17.953Z,5079.00
2023-07-06T10:57:17.897Z,4050.00
2023-07-06T10:58:17.956Z,4372.00
2023-07-06T10:59:17.923Z,4816.00
2023-07-06T11:00:17.959Z,5199.00
2023-07-06T11:01:17.914Z,4215.00
2023-07-06T11:02:17.873Z,4667.00
2023-07-06T11:03:17.934Z,5408.00
2023-07-06T11:04:17.862Z,4333.00
2023-07-06T11:05:17.857Z,3578.00
2023-07-06T11:06:17.833Z,3679.00
2023-07-06T11:07:17.849Z,3173.00
2023-07-06T11:08:17.828Z,7422.00
2023-07-06T11:09:17.829Z,5324.00
2023-07-06T11:10:17.878Z,6399.00
2023-07-06T11:11:17.748Z,6262.00
2023-07-06T11:12:17.783Z,6393.00
2023-07-06T11:13:17.875Z,6048.00
2023-07-06T11:14:17.738Z,5848.00
2023-07-06T11:15:17.753Z,5517.00
2023-07-06T11:16:17.761Z,5075.00
2023-07-06T11:17:17.702Z,5404.00
2023-07-06T11:18:17.726Z,5542.00
2023-07-06T11:19:17.703Z,5435.00
2023-07-06T11:20:17.687Z,6130.00
2023-07-06T11:21:17.669Z,2543.00
2023-07-06T11:22:17.646Z,6453.00
2023-07-06T11:23:17.641Z,10352.00
2023-07-06T11:24:17.681Z,8237.00
2023-07-06T11:25:17.754Z,6701.00
2023-07-06T11:26:18.191Z,5673.00
2023-07-06T11:27:17.616Z,4796.00
2023-07-06T11:28:19.522Z,5096.00
2023-07-06T11:29:17.590Z,6823.00
2023-07-06T11:30:17.573Z,7629.00
2023-07-06T11:31:17.594Z,6238.00
2023-07-06T11:32:17.569Z,6100.00
2023-07-06T11:33:17.560Z,5405.00
2023-07-06T11:34:17.532Z,4993.00
2023-07-06T11:35:17.512Z,6846.00
2023-07-06T11:36:17.613Z,5297.00
2023-07-06T11:37:17.483Z,5131.00
2023-07-06T11:38:17.522Z,4368.00
2023-07-06T11:39:17.464Z,4342.00
2023-07-06T11:40:17.450Z,4619.00
2023-07-06T11:41:17.458Z,4736.00
2023-07-06T11:42:17.438Z,4805.00
2023-07-06T11:43:17.442Z,5488.00
2023-07-06T11:44:17.459Z,5866.00
2023-07-06T11:45:17.434Z,1694.00
2023-07-06T11:46:17.401Z,4835.00
2023-07-06T11:47:17.587Z,6384.00
2023-07-06T11:48:17.441Z,4740.00
2023-07-06T11:49:17.443Z,9135.00
2023-07-06T11:50:17.359Z,4274.00
2023-07-06T11:51:17.329Z,3952.00
2023-07-06T11:52:17.353Z,9247.00
2023-07-06T11:53:17.314Z,7148.00
2023-07-06T11:54:17.358Z,6007.00
2023-07-06T11:55:17.289Z,2881.00
2023-07-06T11:56:17.295Z,11203.00
2023-07-06T11:57:17.282Z,6538.00
2023-07-06T11:58:17.288Z,6441.00
2023-07-06T11:59:17.270Z,5348.00
2023-07-06T12:00:17.275Z,5077.00
2023-07-06T12:01:17.296Z,6889.00
2023-07-06T12:02:17.263Z,8024.00
2023-07-06T12:03:17.254Z,5891.00
2023-07-06T12:04:17.219Z,6245.00
2023-07-06T12:05:17.284Z,7793.00
2023-07-06T12:06:17.223Z,4866.00
2023-07-06T12:07:17.195Z,6157.00
2023-07-06T12:08:17.177Z,8109.00
2023-07-06T12:09:17.156Z,1826.00
2023-07-06T12:10:17.185Z,6306.00
2023-07-06T12:11:17.657Z,6293.00
2023-07-06T12:12:17.196Z,6487.00
2023-07-06T12:13:17.152Z,9242.00
2023-07-06T12:14:17.113Z,4740.00
2023-07-06T12:15:17.105Z,6837.00
2023-07-06T12:16:17.266Z,3701.00
2023-07-06T12:17:17.164Z,7864.00
2023-07-06T12:18:17.158Z,7895.00
2023-07-06T12:19:17.071Z,6346.00
2023-07-06T12:20:17.061Z,6247.00